sensor_id;sensor_type;location;lat;lon;timestamp;P1;durP1;ratioP1;P2;durP2;ratioP2
19280;SDS011;9774;52.034;5.342;2022-12-31T00:00:14;1.08;;;0.80;;
19280;SDS011;9774;52.034;5.342;2022-12-31T00:02:41;0.85;;;0.60;;
19280;SDS011;9774;52.034;5.342;2022-12-31T00:05:09;1.25;;;0.80;;
19280;SDS011;9774;52.034;5.342;2022-12-31T00:07:37;0.70;;;0.70;;
19280;SDS011;9774;52.034;5.342;2022-12-31T00:10:04;1.00;;;0.90;;
19280;SDS011;9774;52.034;5.342;2022-12-31T00:12:32;1.30;;;0.93;;
19280;SDS011;9774;52.034;5.342;2022-12-31T00:15:00;2.03;;;1.10;;
19280;SDS011;9774;52.034;5.342;2022-12-31T00:17:28;1.80;;;1.10;;
19280;SDS011;9774;52.034;5.342;2022-12-31T00:19:56;1.17;;;0.90;;
19280;SDS011;9774;52.034;5.342;2022-12-31T00:22:23;2.42;;;1.20;;
19280;SDS011;9774;52.034;5.342;2022-12-31T00:24:50;0.88;;;0.80;;
19280;SDS011;9774;52.034;5.342;2022-12-31T00:27:17;0.93;;;0.77;;
19280;SDS011;9774;52.034;5.342;2022-12-31T00:29:46;0.68;;;0.55;;
19280;SDS011;9774;52.034;5.342;2022-12-31T00:32:13;1.20;;;0.88;;
19280;SDS011;9774;52.034;5.342;2022-12-31T00:34:42;1.05;;;0.50;;
19280;SDS011;9774;52.034;5.342;2022-12-31T00:37:09;1.27;;;0.32;;
19280;SDS011;9774;52.034;5.342;2022-12-31T00:39:36;0.70;;;0.43;;
19280;SDS011;9774;52.034;5.342;2022-12-31T00:42:03;2.40;;;0.50;;
19280;SDS011;9774;52.034;5.342;2022-12-31T00:44:31;0.82;;;0.73;;
19280;SDS011;9774;52.034;5.342;2022-12-31T00:46:58;1.42;;;0.70;;
19280;SDS011;9774;52.034;5.342;2022-12-31T00:49:25;0.95;;;0.57;;
19280;SDS011;9774;52.034;5.342;2022-12-31T00:51:54;0.75;;;0.50;;
19280;SDS011;9774;52.034;5.342;2022-12-31T00:54:21;0.80;;;0.80;;
19280;SDS011;9774;52.034;5.342;2022-12-31T00:56:48;1.00;;;0.73;;
19280;SDS011;9774;52.034;5.342;2022-12-31T00:59:16;1.52;;;0.70;;
19280;SDS011;9774;52.034;5.342;2022-12-31T01:01:43;1.73;;;0.60;;
19280;SDS011;9774;52.034;5.342;2022-12-31T01:04:11;1.73;;;0.93;;
19280;SDS011;9774;52.034;5.342;2022-12-31T01:06:39;1.00;;;0.60;;
19280;SDS011;9774;52.034;5.342;2022-12-31T01:09:09;1.10;;;0.90;;
19280;SDS011;9774;52.034;5.342;2022-12-31T01:11:37;1.27;;;0.80;;
19280;SDS011;9774;52.034;5.342;2022-12-31T01:14:05;1.13;;;0.68;;
19280;SDS011;9774;52.034;5.342;2022-12-31T01:16:35;0.93;;;0.88;;
19280;SDS011;9774;52.034;5.342;2022-12-31T01:19:05;1.17;;;1.08;;
19280;SDS011;9774;52.034;5.342;2022-12-31T01:21:34;1.00;;;0.90;;
19280;SDS011;9774;52.034;5.342;2022-12-31T01:24:03;1.58;;;1.00;;
19280;SDS011;9774;52.034;5.342;2022-12-31T01:26:32;3.00;;;1.10;;
19280;SDS011;9774;52.034;5.342;2022-12-31T01:28:59;0.95;;;0.80;;
19280;SDS011;9774;52.034;5.342;2022-12-31T01:31:27;2.13;;;1.20;;
19280;SDS011;9774;52.034;5.342;2022-12-31T01:33:54;1.42;;;1.00;;
19280;SDS011;9774;52.034;5.342;2022-12-31T01:36:24;2.45;;;1.35;;
19280;SDS011;9774;52.034;5.342;2022-12-31T01:38:54;1.60;;;1.00;;
19280;SDS011;9774;52.034;5.342;2022-12-31T01:41:23;1.52;;;1.20;;
19280;SDS011;9774;52.034;5.342;2022-12-31T01:43:54;1.83;;;1.15;;
19280;SDS011;9774;52.034;5.342;2022-12-31T01:46:24;1.35;;;1.13;;
19280;SDS011;9774;52.034;5.342;2022-12-31T01:48:58;0.80;;;0.73;;
19280;SDS011;9774;52.034;5.342;2022-12-31T01:51:29;2.80;;;1.20;;
19280;SDS011;9774;52.034;5.342;2022-12-31T01:53:58;2.38;;;1.20;;
19280;SDS011;9774;52.034;5.342;2022-12-31T01:56:26;3.05;;;1.08;;
19280;SDS011;9774;52.034;5.342;2022-12-31T01:58:55;1.25;;;1.05;;
19280;SDS011;9774;52.034;5.342;2022-12-31T02:01:24;1.30;;;0.90;;
19280;SDS011;9774;52.034;5.342;2022-12-31T02:03:53;1.90;;;1.10;;
19280;SDS011;9774;52.034;5.342;2022-12-31T02:06:23;1.60;;;0.88;;
19280;SDS011;9774;52.034;5.342;2022-12-31T02:08:54;1.10;;;0.90;;
19280;SDS011;9774;52.034;5.342;2022-12-31T02:11:24;3.03;;;1.00;;
19280;SDS011;9774;52.034;5.342;2022-12-31T02:13:53;1.52;;;0.65;;
19280;SDS011;9774;52.034;5.342;2022-12-31T02:16:26;0.82;;;0.57;;
19280;SDS011;9774;52.034;5.342;2022-12-31T02:19:03;1.10;;;0.55;;
19280;SDS011;9774;52.034;5.342;2022-12-31T02:21:45;2.92;;;0.70;;
19280;SDS011;9774;52.034;5.342;2022-12-31T02:27:19;0.60;;;0.30;;
19280;SDS011;9774;52.034;5.342;2022-12-31T02:32:47;0.95;;;0.35;;
19280;SDS011;9774;52.034;5.342;2022-12-31T02:35:23;0.82;;;0.20;;
19280;SDS011;9774;52.034;5.342;2022-12-31T02:37:56;1.23;;;0.30;;
19280;SDS011;9774;52.034;5.342;2022-12-31T02:40:29;0.82;;;0.20;;
19280;SDS011;9774;52.034;5.342;2022-12-31T02:42:59;0.80;;;0.20;;
19280;SDS011;9774;52.034;5.342;2022-12-31T02:45:30;0.13;;;0.10;;
19280;SDS011;9774;52.034;5.342;2022-12-31T02:48:03;1.65;;;0.45;;
19280;SDS011;9774;52.034;5.342;2022-12-31T02:50:53;1.55;;;0.40;;
19280;SDS011;9774;52.034;5.342;2022-12-31T02:53:30;0.85;;;0.40;;
19280;SDS011;9774;52.034;5.342;2022-12-31T02:56:12;1.55;;;0.30;;
19280;SDS011;9774;52.034;5.342;2022-12-31T02:58:48;0.95;;;0.28;;
19280;SDS011;9774;52.034;5.342;2022-12-31T03:01:39;1.13;;;0.30;;
19280;SDS011;9774;52.034;5.342;2022-12-31T03:04:28;0.95;;;0.40;;
19280;SDS011;9774;52.034;5.342;2022-12-31T03:07:00;1.60;;;0.75;;
19280;SDS011;9774;52.034;5.342;2022-12-31T03:09:29;1.17;;;0.20;;
19280;SDS011;9774;52.034;5.342;2022-12-31T03:11:56;1.00;;;0.25;;
19280;SDS011;9774;52.034;5.342;2022-12-31T03:14:42;1.55;;;0.30;;
19280;SDS011;9774;52.034;5.342;2022-12-31T03:17:11;1.10;;;0.50;;
19280;SDS011;9774;52.034;5.342;2022-12-31T03:19:39;1.35;;;0.63;;
19280;SDS011;9774;52.034;5.342;2022-12-31T03:22:23;1.85;;;0.20;;
19280;SDS011;9774;52.034;5.342;2022-12-31T03:24:54;0.52;;;0.20;;
19280;SDS011;9774;52.034;5.342;2022-12-31T03:27:44;1.17;;;0.40;;
19280;SDS011;9774;52.034;5.342;2022-12-31T03:30:13;2.05;;;0.50;;
19280;SDS011;9774;52.034;5.342;2022-12-31T03:32:43;1.33;;;0.45;;
19280;SDS011;9774;52.034;5.342;2022-12-31T03:35:12;1.73;;;0.43;;
19280;SDS011;9774;52.034;5.342;2022-12-31T03:37:40;0.77;;;0.30;;
19280;SDS011;9774;52.034;5.342;2022-12-31T03:40:09;0.73;;;0.50;;
19280;SDS011;9774;52.034;5.342;2022-12-31T03:42:37;0.73;;;0.50;;
19280;SDS011;9774;52.034;5.342;2022-12-31T03:45:05;0.68;;;0.43;;
19280;SDS011;9774;52.034;5.342;2022-12-31T03:47:33;0.93;;;0.32;;
19280;SDS011;9774;52.034;5.342;2022-12-31T03:50:02;0.93;;;0.30;;
19280;SDS011;9774;52.034;5.342;2022-12-31T03:52:30;1.27;;;0.30;;
19280;SDS011;9774;52.034;5.342;2022-12-31T03:54:57;1.08;;;0.47;;
19280;SDS011;9774;52.034;5.342;2022-12-31T03:57:26;1.38;;;0.32;;
19280;SDS011;9774;52.034;5.342;2022-12-31T03:59:54;2.65;;;0.50;;
19280;SDS011;9774;52.034;5.342;2022-12-31T04:02:21;2.03;;;0.70;;
19280;SDS011;9774;52.034;5.342;2022-12-31T04:04:48;1.10;;;0.50;;
19280;SDS011;9774;52.034;5.342;2022-12-31T04:07:17;1.60;;;0.50;;
19280;SDS011;9774;52.034;5.342;2022-12-31T04:09:44;3.80;;;0.50;;
19280;SDS011;9774;52.034;5.342;2022-12-31T04:12:11;1.02;;;0.55;;
19280;SDS011;9774;52.034;5.342;2022-12-31T04:14:39;0.52;;;0.45;;
19280;SDS011;9774;52.034;5.342;2022-12-31T04:17:06;0.90;;;0.68;;
19280;SDS011;9774;52.034;5.342;2022-12-31T04:19:33;0.75;;;0.60;;
19280;SDS011;9774;52.034;5.342;2022-12-31T04:22:01;1.85;;;0.60;;
19280;SDS011;9774;52.034;5.342;2022-12-31T04:24:30;0.90;;;0.55;;
19280;SDS011;9774;52.034;5.342;2022-12-31T04:26:58;0.80;;;0.45;;
19280;SDS011;9774;52.034;5.342;2022-12-31T04:29:26;1.13;;;0.70;;
19280;SDS011;9774;52.034;5.342;2022-12-31T04:31:53;0.82;;;0.75;;
19280;SDS011;9774;52.034;5.342;2022-12-31T04:34:20;1.35;;;0.82;;
19280;SDS011;9774;52.034;5.342;2022-12-31T04:36:47;1.83;;;1.00;;
19280;SDS011;9774;52.034;5.342;2022-12-31T04:39:15;1.40;;;1.13;;
19280;SDS011;9774;52.034;5.342;2022-12-31T04:41:43;1.63;;;0.60;;
19280;SDS011;9774;52.034;5.342;2022-12-31T04:44:11;1.67;;;0.60;;
19280;SDS011;9774;52.034;5.342;2022-12-31T04:46:38;1.42;;;0.95;;
19280;SDS011;9774;52.034;5.342;2022-12-31T04:49:05;0.90;;;0.43;;
19280;SDS011;9774;52.034;5.342;2022-12-31T04:51:33;0.60;;;0.50;;
19280;SDS011;9774;52.034;5.342;2022-12-31T04:54:00;0.80;;;0.50;;
19280;SDS011;9774;52.034;5.342;2022-12-31T04:56:28;2.03;;;0.70;;
19280;SDS011;9774;52.034;5.342;2022-12-31T04:58:58;0.75;;;0.50;;
19280;SDS011;9774;52.034;5.342;2022-12-31T05:01:25;0.60;;;0.50;;
19280;SDS011;9774;52.034;5.342;2022-12-31T05:03:52;0.82;;;0.70;;
19280;SDS011;9774;52.034;5.342;2022-12-31T05:06:20;0.90;;;0.80;;
19280;SDS011;9774;52.034;5.342;2022-12-31T05:08:48;2.67;;;0.90;;
19280;SDS011;9774;52.034;5.342;2022-12-31T05:11:16;1.55;;;1.08;;
19280;SDS011;9774;52.034;5.342;2022-12-31T05:13:43;0.90;;;0.80;;
19280;SDS011;9774;52.034;5.342;2022-12-31T05:16:12;0.75;;;0.73;;
19280;SDS011;9774;52.034;5.342;2022-12-31T05:18:39;1.13;;;1.02;;
19280;SDS011;9774;52.034;5.342;2022-12-31T05:21:06;0.80;;;0.75;;
19280;SDS011;9774;52.034;5.342;2022-12-31T05:23:35;1.20;;;1.08;;
19280;SDS011;9774;52.034;5.342;2022-12-31T05:26:02;1.45;;;1.15;;
19280;SDS011;9774;52.034;5.342;2022-12-31T05:28:29;0.90;;;0.82;;
19280;SDS011;9774;52.034;5.342;2022-12-31T05:30:57;1.70;;;1.00;;
19280;SDS011;9774;52.034;5.342;2022-12-31T05:33:26;1.17;;;0.80;;
19280;SDS011;9774;52.034;5.342;2022-12-31T05:35:53;1.05;;;0.80;;
19280;SDS011;9774;52.034;5.342;2022-12-31T05:38:22;1.00;;;0.75;;
19280;SDS011;9774;52.034;5.342;2022-12-31T05:40:57;0.70;;;0.60;;
19280;SDS011;9774;52.034;5.342;2022-12-31T05:43:24;1.00;;;0.60;;
19280;SDS011;9774;52.034;5.342;2022-12-31T05:45:52;1.10;;;1.00;;
19280;SDS011;9774;52.034;5.342;2022-12-31T05:48:19;1.10;;;0.52;;
19280;SDS011;9774;52.034;5.342;2022-12-31T05:50:48;1.50;;;0.80;;
19280;SDS011;9774;52.034;5.342;2022-12-31T05:53:15;1.38;;;0.82;;
19280;SDS011;9774;52.034;5.342;2022-12-31T05:55:44;2.55;;;0.57;;
19280;SDS011;9774;52.034;5.342;2022-12-31T05:58:12;0.50;;;0.50;;
19280;SDS011;9774;52.034;5.342;2022-12-31T06:00:40;0.80;;;0.68;;
19280;SDS011;9774;52.034;5.342;2022-12-31T06:03:07;0.50;;;0.45;;
19280;SDS011;9774;52.034;5.342;2022-12-31T06:05:37;1.02;;;0.77;;
19280;SDS011;9774;52.034;5.342;2022-12-31T06:08:07;0.82;;;0.70;;
19280;SDS011;9774;52.034;5.342;2022-12-31T06:10:34;0.70;;;0.47;;
19280;SDS011;9774;52.034;5.342;2022-12-31T06:13:02;0.55;;;0.40;;
19280;SDS011;9774;52.034;5.342;2022-12-31T06:15:29;0.75;;;0.50;;
19280;SDS011;9774;52.034;5.342;2022-12-31T06:17:57;0.85;;;0.70;;
19280;SDS011;9774;52.034;5.342;2022-12-31T06:20:24;0.88;;;0.77;;
19280;SDS011;9774;52.034;5.342;2022-12-31T06:22:51;1.08;;;0.77;;
19280;SDS011;9774;52.034;5.342;2022-12-31T06:25:20;0.70;;;0.60;;
19280;SDS011;9774;52.034;5.342;2022-12-31T06:27:47;0.85;;;0.65;;
19280;SDS011;9774;52.034;5.342;2022-12-31T06:30:15;0.82;;;0.73;;
19280;SDS011;9774;52.034;5.342;2022-12-31T06:32:42;0.68;;;0.63;;
19280;SDS011;9774;52.034;5.342;2022-12-31T06:35:09;0.90;;;0.80;;
19280;SDS011;9774;52.034;5.342;2022-12-31T06:37:37;1.00;;;0.90;;
19280;SDS011;9774;52.034;5.342;2022-12-31T06:40:05;1.33;;;1.13;;
19280;SDS011;9774;52.034;5.342;2022-12-31T06:42:34;1.17;;;0.90;;
19280;SDS011;9774;52.034;5.342;2022-12-31T06:45:01;1.50;;;1.40;;
19280;SDS011;9774;52.034;5.342;2022-12-31T06:47:29;1.40;;;1.10;;
19280;SDS011;9774;52.034;5.342;2022-12-31T06:49:56;1.30;;;1.20;;
19280;SDS011;9774;52.034;5.342;2022-12-31T06:52:23;1.23;;;1.13;;
19280;SDS011;9774;52.034;5.342;2022-12-31T06:54:51;1.42;;;1.13;;
19280;SDS011;9774;52.034;5.342;2022-12-31T06:57:18;1.08;;;0.88;;
19280;SDS011;9774;52.034;5.342;2022-12-31T06:59:49;1.30;;;0.82;;
19280;SDS011;9774;52.034;5.342;2022-12-31T07:02:20;0.80;;;0.77;;
19280;SDS011;9774;52.034;5.342;2022-12-31T07:05:17;1.90;;;0.90;;
19280;SDS011;9774;52.034;5.342;2022-12-31T07:07:54;1.30;;;0.80;;
19280;SDS011;9774;52.034;5.342;2022-12-31T07:10:33;0.60;;;0.45;;
19280;SDS011;9774;52.034;5.342;2022-12-31T07:13:15;0.60;;;0.40;;
19280;SDS011;9774;52.034;5.342;2022-12-31T07:16:08;0.60;;;0.40;;
19280;SDS011;9774;52.034;5.342;2022-12-31T07:18:45;0.40;;;0.32;;
19280;SDS011;9774;52.034;5.342;2022-12-31T07:21:20;0.50;;;0.40;;
19280;SDS011;9774;52.034;5.342;2022-12-31T07:23:56;0.50;;;0.30;;
19280;SDS011;9774;52.034;5.342;2022-12-31T07:26:28;1.65;;;0.40;;
19280;SDS011;9774;52.034;5.342;2022-12-31T07:29:10;0.35;;;0.30;;
19280;SDS011;9774;52.034;5.342;2022-12-31T07:31:49;0.88;;;0.30;;
19280;SDS011;9774;52.034;5.342;2022-12-31T07:34:29;0.47;;;0.47;;
19280;SDS011;9774;52.034;5.342;2022-12-31T07:37:06;0.73;;;0.63;;
19280;SDS011;9774;52.034;5.342;2022-12-31T07:39:40;1.17;;;0.47;;
19280;SDS011;9774;52.034;5.342;2022-12-31T07:42:23;0.88;;;0.45;;
19280;SDS011;9774;52.034;5.342;2022-12-31T07:44:58;0.82;;;0.50;;
19280;SDS011;9774;52.034;5.342;2022-12-31T07:47:30;0.50;;;0.40;;
19280;SDS011;9774;52.034;5.342;2022-12-31T07:49:58;0.85;;;0.55;;
19280;SDS011;9774;52.034;5.342;2022-12-31T07:52:26;0.80;;;0.43;;
19280;SDS011;9774;52.034;5.342;2022-12-31T07:54:54;0.40;;;0.40;;
19280;SDS011;9774;52.034;5.342;2022-12-31T07:57:21;0.60;;;0.47;;
19280;SDS011;9774;52.034;5.342;2022-12-31T07:59:58;0.38;;;0.30;;
19280;SDS011;9774;52.034;5.342;2022-12-31T08:05:28;0.85;;;0.30;;
19280;SDS011;9774;52.034;5.342;2022-12-31T08:08:03;0.57;;;0.25;;
19280;SDS011;9774;52.034;5.342;2022-12-31T08:10:41;0.45;;;0.20;;
19280;SDS011;9774;52.034;5.342;2022-12-31T08:13:15;0.43;;;0.28;;
19280;SDS011;9774;52.034;5.342;2022-12-31T08:15:43;0.90;;;0.40;;
19280;SDS011;9774;52.034;5.342;2022-12-31T08:18:12;0.35;;;0.30;;
19280;SDS011;9774;52.034;5.342;2022-12-31T08:20:42;0.65;;;0.30;;
19280;SDS011;9774;52.034;5.342;2022-12-31T08:23:18;0.77;;;0.20;;
19280;SDS011;9774;52.034;5.342;2022-12-31T08:26:05;0.60;;;0.30;;
19280;SDS011;9774;52.034;5.342;2022-12-31T08:28:46;0.88;;;0.20;;
19280;SDS011;9774;52.034;5.342;2022-12-31T08:31:24;0.30;;;0.30;;
19280;SDS011;9774;52.034;5.342;2022-12-31T08:34:02;0.35;;;0.17;;
19280;SDS011;9774;52.034;5.342;2022-12-31T08:36:40;0.38;;;0.10;;
19280;SDS011;9774;52.034;5.342;2022-12-31T08:39:17;3.20;;;0.15;;
19280;SDS011;9774;52.034;5.342;2022-12-31T08:41:53;0.60;;;0.20;;
19280;SDS011;9774;52.034;5.342;2022-12-31T08:44:27;0.45;;;0.30;;
19280;SDS011;9774;52.034;5.342;2022-12-31T08:47:06;0.43;;;0.15;;
19280;SDS011;9774;52.034;5.342;2022-12-31T08:49:44;0.57;;;0.10;;
19280;SDS011;9774;52.034;5.342;2022-12-31T08:52:18;0.10;;;0.00;;
19280;SDS011;9774;52.034;5.342;2022-12-31T08:54:51;0.32;;;0.20;;
19280;SDS011;9774;52.034;5.342;2022-12-31T08:57:21;0.73;;;0.20;;
19280;SDS011;9774;52.034;5.342;2022-12-31T08:59:55;2.55;;;0.30;;
19280;SDS011;9774;52.034;5.342;2022-12-31T09:02:35;0.80;;;0.30;;
19280;SDS011;9774;52.034;5.342;2022-12-31T09:05:17;0.30;;;0.20;;
19280;SDS011;9774;52.034;5.342;2022-12-31T09:07:50;0.20;;;0.10;;
19280;SDS011;9774;52.034;5.342;2022-12-31T09:10:29;1.15;;;0.10;;
19280;SDS011;9774;52.034;5.342;2022-12-31T09:13:01;0.95;;;0.20;;
19280;SDS011;9774;52.034;5.342;2022-12-31T09:15:35;1.20;;;0.30;;
19280;SDS011;9774;52.034;5.342;2022-12-31T09:18:06;0.25;;;0.10;;
19280;SDS011;9774;52.034;5.342;2022-12-31T09:20:36;0.60;;;0.30;;
19280;SDS011;9774;52.034;5.342;2022-12-31T09:23:04;0.82;;;0.28;;
19280;SDS011;9774;52.034;5.342;2022-12-31T09:25:32;0.45;;;0.17;;
19280;SDS011;9774;52.034;5.342;2022-12-31T09:28:05;0.52;;;0.20;;
19280;SDS011;9774;52.034;5.342;2022-12-31T09:30:41;1.52;;;0.47;;
19280;SDS011;9774;52.034;5.342;2022-12-31T09:33:15;0.88;;;0.28;;
19280;SDS011;9774;52.034;5.342;2022-12-31T09:35:58;1.63;;;0.70;;
19280;SDS011;9774;52.034;5.342;2022-12-31T09:38:29;3.75;;;0.60;;
19280;SDS011;9774;52.034;5.342;2022-12-31T09:41:10;1.30;;;0.40;;
19280;SDS011;9774;52.034;5.342;2022-12-31T09:53:15;2.13;;;0.30;;
19280;SDS011;9774;52.034;5.342;2022-12-31T09:56:02;1.88;;;0.35;;
19280;SDS011;9774;52.034;5.342;2022-12-31T09:58:39;0.98;;;0.50;;
19280;SDS011;9774;52.034;5.342;2022-12-31T10:07:01;1.45;;;0.60;;
19280;SDS011;9774;52.034;5.342;2022-12-31T10:09:44;2.35;;;0.40;;
19280;SDS011;9774;52.034;5.342;2022-12-31T10:12:31;0.43;;;0.17;;
19280;SDS011;9774;52.034;5.342;2022-12-31T10:15:15;0.80;;;0.30;;
19280;SDS011;9774;52.034;5.342;2022-12-31T10:18:00;1.52;;;0.40;;
19280;SDS011;9774;52.034;5.342;2022-12-31T10:20:37;0.57;;;0.20;;
19280;SDS011;9774;52.034;5.342;2022-12-31T10:23:31;0.65;;;0.20;;
19280;SDS011;9774;52.034;5.342;2022-12-31T10:26:20;2.92;;;0.75;;
19280;SDS011;9774;52.034;5.342;2022-12-31T10:29:07;0.90;;;0.20;;
19280;SDS011;9774;52.034;5.342;2022-12-31T10:31:42;0.45;;;0.30;;
19280;SDS011;9774;52.034;5.342;2022-12-31T10:34:20;1.02;;;0.50;;
19280;SDS011;9774;52.034;5.342;2022-12-31T10:36:57;1.27;;;0.50;;
19280;SDS011;9774;52.034;5.342;2022-12-31T10:39:36;1.85;;;0.47;;
19280;SDS011;9774;52.034;5.342;2022-12-31T10:45:51;1.23;;;0.20;;
19280;SDS011;9774;52.034;5.342;2022-12-31T10:55:04;0.98;;;0.32;;
19280;SDS011;9774;52.034;5.342;2022-12-31T10:57:58;1.30;;;0.73;;
19280;SDS011;9774;52.034;5.342;2022-12-31T11:00:57;1.27;;;0.55;;
19280;SDS011;9774;52.034;5.342;2022-12-31T11:03:47;1.70;;;0.60;;
19280;SDS011;9774;52.034;5.342;2022-12-31T11:06:50;2.80;;;0.77;;
19280;SDS011;9774;52.034;5.342;2022-12-31T11:09:49;1.00;;;0.40;;
19280;SDS011;9774;52.034;5.342;2022-12-31T11:12:38;1.10;;;0.40;;
19280;SDS011;9774;52.034;5.342;2022-12-31T11:15:33;3.20;;;0.73;;
19280;SDS011;9774;52.034;5.342;2022-12-31T11:18:14;1.65;;;0.50;;
19280;SDS011;9774;52.034;5.342;2022-12-31T11:20:54;1.00;;;0.45;;
19280;SDS011;9774;52.034;5.342;2022-12-31T11:23:34;2.70;;;0.52;;
19280;SDS011;9774;52.034;5.342;2022-12-31T11:26:11;1.33;;;0.50;;
19280;SDS011;9774;52.034;5.342;2022-12-31T11:28:51;2.15;;;0.30;;
19280;SDS011;9774;52.034;5.342;2022-12-31T11:31:41;2.28;;;0.40;;
19280;SDS011;9774;52.034;5.342;2022-12-31T11:37:22;1.20;;;0.50;;
19280;SDS011;9774;52.034;5.342;2022-12-31T11:40:00;1.52;;;0.60;;
19280;SDS011;9774;52.034;5.342;2022-12-31T11:42:41;2.08;;;0.50;;
19280;SDS011;9774;52.034;5.342;2022-12-31T11:45:19;1.75;;;0.70;;
19280;SDS011;9774;52.034;5.342;2022-12-31T11:48:03;0.95;;;0.52;;
19280;SDS011;9774;52.034;5.342;2022-12-31T11:50:41;1.02;;;0.60;;
19280;SDS011;9774;52.034;5.342;2022-12-31T11:56:10;2.13;;;0.50;;
19280;SDS011;9774;52.034;5.342;2022-12-31T11:58:44;3.13;;;0.80;;
19280;SDS011;9774;52.034;5.342;2022-12-31T12:01:15;2.72;;;0.63;;
19280;SDS011;9774;52.034;5.342;2022-12-31T12:03:44;2.08;;;0.68;;
19280;SDS011;9774;52.034;5.342;2022-12-31T12:06:14;5.07;;;0.70;;
19280;SDS011;9774;52.034;5.342;2022-12-31T12:08:43;4.00;;;0.90;;
19280;SDS011;9774;52.034;5.342;2022-12-31T12:11:14;1.40;;;0.50;;
19280;SDS011;9774;52.034;5.342;2022-12-31T12:13:45;2.60;;;1.08;;
19280;SDS011;9774;52.034;5.342;2022-12-31T12:16:12;1.90;;;0.60;;
19280;SDS011;9774;52.034;5.342;2022-12-31T12:18:41;2.83;;;1.05;;
19280;SDS011;9774;52.034;5.342;2022-12-31T12:21:11;2.50;;;0.80;;
19280;SDS011;9774;52.034;5.342;2022-12-31T12:23:52;1.25;;;0.63;;
19280;SDS011;9774;52.034;5.342;2022-12-31T12:26:28;1.67;;;0.98;;
19280;SDS011;9774;52.034;5.342;2022-12-31T12:28:59;1.67;;;0.70;;
19280;SDS011;9774;52.034;5.342;2022-12-31T12:31:36;2.60;;;0.60;;
19280;SDS011;9774;52.034;5.342;2022-12-31T12:34:04;3.72;;;1.17;;
19280;SDS011;9774;52.034;5.342;2022-12-31T12:36:33;2.22;;;0.70;;
19280;SDS011;9774;52.034;5.342;2022-12-31T12:39:00;3.58;;;0.57;;
19280;SDS011;9774;52.034;5.342;2022-12-31T12:41:28;7.15;;;0.90;;
19280;SDS011;9774;52.034;5.342;2022-12-31T12:44:03;3.28;;;0.88;;
19280;SDS011;9774;52.034;5.342;2022-12-31T12:46:33;3.38;;;1.10;;
19280;SDS011;9774;52.034;5.342;2022-12-31T12:49:04;3.33;;;1.00;;
19280;SDS011;9774;52.034;5.342;2022-12-31T12:51:45;4.20;;;1.00;;
19280;SDS011;9774;52.034;5.342;2022-12-31T12:54:30;2.53;;;0.60;;
19280;SDS011;9774;52.034;5.342;2022-12-31T12:57:06;1.90;;;0.50;;
19280;SDS011;9774;52.034;5.342;2022-12-31T12:59:43;1.73;;;0.80;;
19280;SDS011;9774;52.034;5.342;2022-12-31T13:02:35;2.20;;;0.85;;
19280;SDS011;9774;52.034;5.342;2022-12-31T13:05:37;3.22;;;0.73;;
19280;SDS011;9774;52.034;5.342;2022-12-31T13:08:18;1.52;;;0.55;;
19280;SDS011;9774;52.034;5.342;2022-12-31T13:11:09;0.98;;;0.50;;
19280;SDS011;9774;52.034;5.342;2022-12-31T13:13:53;2.30;;;0.80;;
19280;SDS011;9774;52.034;5.342;2022-12-31T13:16:31;1.73;;;0.75;;
19280;SDS011;9774;52.034;5.342;2022-12-31T13:19:04;2.22;;;0.60;;
19280;SDS011;9774;52.034;5.342;2022-12-31T13:21:40;4.68;;;0.80;;
19280;SDS011;9774;52.034;5.342;2022-12-31T13:24:20;3.92;;;1.00;;
19280;SDS011;9774;52.034;5.342;2022-12-31T13:26:53;2.45;;;0.88;;
19280;SDS011;9774;52.034;5.342;2022-12-31T13:29:28;2.28;;;0.73;;
19280;SDS011;9774;52.034;5.342;2022-12-31T13:31:59;3.42;;;0.75;;
19280;SDS011;9774;52.034;5.342;2022-12-31T13:34:30;3.53;;;0.60;;
19280;SDS011;9774;52.034;5.342;2022-12-31T13:37:01;1.67;;;0.47;;
19280;SDS011;9774;52.034;5.342;2022-12-31T13:39:35;2.58;;;1.02;;
19280;SDS011;9774;52.034;5.342;2022-12-31T13:42:08;3.45;;;1.00;;
19280;SDS011;9774;52.034;5.342;2022-12-31T13:44:40;2.47;;;0.80;;
19280;SDS011;9774;52.034;5.342;2022-12-31T13:47:14;2.40;;;0.73;;
19280;SDS011;9774;52.034;5.342;2022-12-31T13:49:51;4.50;;;0.70;;
19280;SDS011;9774;52.034;5.342;2022-12-31T13:52:26;3.75;;;1.20;;
19280;SDS011;9774;52.034;5.342;2022-12-31T13:55:00;1.95;;;1.05;;
19280;SDS011;9774;52.034;5.342;2022-12-31T13:57:39;1.45;;;0.70;;
19280;SDS011;9774;52.034;5.342;2022-12-31T14:00:14;2.95;;;1.05;;
19280;SDS011;9774;52.034;5.342;2022-12-31T14:02:46;2.08;;;0.90;;
19280;SDS011;9774;52.034;5.342;2022-12-31T14:05:21;2.20;;;0.90;;
19280;SDS011;9774;52.034;5.342;2022-12-31T14:07:54;1.92;;;1.10;;
19280;SDS011;9774;52.034;5.342;2022-12-31T14:10:27;7.95;;;1.67;;
19280;SDS011;9774;52.034;5.342;2022-12-31T14:13:04;2.35;;;0.90;;
19280;SDS011;9774;52.034;5.342;2022-12-31T14:15:43;3.47;;;1.02;;
19280;SDS011;9774;52.034;5.342;2022-12-31T14:18:20;5.05;;;1.38;;
19280;SDS011;9774;52.034;5.342;2022-12-31T14:20:53;1.92;;;1.52;;
19280;SDS011;9774;52.034;5.342;2022-12-31T14:23:36;3.05;;;1.50;;
19280;SDS011;9774;52.034;5.342;2022-12-31T14:26:09;5.68;;;3.72;;
19280;SDS011;9774;52.034;5.342;2022-12-31T14:28:46;6.72;;;4.57;;
19280;SDS011;9774;52.034;5.342;2022-12-31T14:31:18;5.35;;;3.47;;
19280;SDS011;9774;52.034;5.342;2022-12-31T14:33:53;4.90;;;2.88;;
19280;SDS011;9774;52.034;5.342;2022-12-31T14:36:34;4.80;;;2.05;;
19280;SDS011;9774;52.034;5.342;2022-12-31T14:39:12;3.55;;;1.95;;
19280;SDS011;9774;52.034;5.342;2022-12-31T14:41:54;3.25;;;1.20;;
19280;SDS011;9774;52.034;5.342;2022-12-31T14:44:31;3.28;;;1.70;;
19280;SDS011;9774;52.034;5.342;2022-12-31T14:47:14;3.38;;;1.65;;
19280;SDS011;9774;52.034;5.342;2022-12-31T14:49:54;3.85;;;1.60;;
19280;SDS011;9774;52.034;5.342;2022-12-31T14:52:30;3.25;;;1.60;;
19280;SDS011;9774;52.034;5.342;2022-12-31T14:54:59;5.18;;;1.90;;
19280;SDS011;9774;52.034;5.342;2022-12-31T14:57:38;5.47;;;2.42;;
19280;SDS011;9774;52.034;5.342;2022-12-31T15:00:28;5.63;;;3.40;;
19280;SDS011;9774;52.034;5.342;2022-12-31T15:02:58;5.55;;;2.90;;
19280;SDS011;9774;52.034;5.342;2022-12-31T15:05:28;5.57;;;2.50;;
19280;SDS011;9774;52.034;5.342;2022-12-31T15:08:08;5.25;;;2.15;;
19280;SDS011;9774;52.034;5.342;2022-12-31T15:11:02;4.63;;;2.00;;
19280;SDS011;9774;52.034;5.342;2022-12-31T15:13:47;3.92;;;1.73;;
19280;SDS011;9774;52.034;5.342;2022-12-31T15:16:39;9.55;;;2.10;;
19280;SDS011;9774;52.034;5.342;2022-12-31T15:19:38;6.55;;;1.38;;
19280;SDS011;9774;52.034;5.342;2022-12-31T15:22:28;4.85;;;1.10;;
19280;SDS011;9774;52.034;5.342;2022-12-31T15:25:02;4.03;;;1.55;;
19280;SDS011;9774;52.034;5.342;2022-12-31T15:27:45;4.25;;;1.83;;
19280;SDS011;9774;52.034;5.342;2022-12-31T15:30:28;2.50;;;1.10;;
19280;SDS011;9774;52.034;5.342;2022-12-31T15:33:03;5.10;;;1.45;;
19280;SDS011;9774;52.034;5.342;2022-12-31T15:35:43;6.00;;;1.60;;
19280;SDS011;9774;52.034;5.342;2022-12-31T15:38:17;3.05;;;1.45;;
19280;SDS011;9774;52.034;5.342;2022-12-31T15:40:56;7.03;;;1.83;;
19280;SDS011;9774;52.034;5.342;2022-12-31T15:43:27;3.97;;;1.80;;
19280;SDS011;9774;52.034;5.342;2022-12-31T15:46:06;5.57;;;1.80;;
19280;SDS011;9774;52.034;5.342;2022-12-31T15:48:41;5.25;;;1.30;;
19280;SDS011;9774;52.034;5.342;2022-12-31T15:51:13;5.25;;;1.60;;
19280;SDS011;9774;52.034;5.342;2022-12-31T15:53:45;5.85;;;1.90;;
19280;SDS011;9774;52.034;5.342;2022-12-31T15:56:17;4.30;;;2.00;;
19280;SDS011;9774;52.034;5.342;2022-12-31T15:58:48;3.47;;;1.58;;
19280;SDS011;9774;52.034;5.342;2022-12-31T16:01:23;2.90;;;1.50;;
19280;SDS011;9774;52.034;5.342;2022-12-31T16:03:58;4.57;;;1.58;;
19280;SDS011;9774;52.034;5.342;2022-12-31T16:06:28;5.13;;;1.85;;
19280;SDS011;9774;52.034;5.342;2022-12-31T16:08:57;3.10;;;1.60;;
19280;SDS011;9774;52.034;5.342;2022-12-31T16:11:25;6.85;;;1.98;;
19280;SDS011;9774;52.034;5.342;2022-12-31T16:13:54;3.65;;;2.17;;
19280;SDS011;9774;52.034;5.342;2022-12-31T16:16:25;7.13;;;2.20;;
19280;SDS011;9774;52.034;5.342;2022-12-31T16:18:54;8.15;;;2.00;;